sensor_id;sensor_type;location;lat;lon;timestamp;P1;durP1;ratioP1;P2;durP2;ratioP2
37943;SDS011;23767;42.024;23.086;2022-12-18T00:01:29;23.77;;;15.88;;
37943;SDS011;23767;42.024;23.086;2022-12-18T00:03:56;26.05;;;16.65;;
37943;SDS011;23767;42.024;23.086;2022-12-18T00:06:23;21.52;;;16.40;;
37943;SDS011;23767;42.024;23.086;2022-12-18T00:08:49;23.75;;;15.02;;
37943;SDS011;23767;42.024;23.086;2022-12-18T00:11:19;21.05;;;14.48;;
37943;SDS011;23767;42.024;23.086;2022-12-18T00:13:46;23.77;;;14.07;;
37943;SDS011;23767;42.024;23.086;2022-12-18T00:16:13;22.52;;;14.10;;
37943;SDS011;23767;42.024;23.086;2022-12-18T00:18:39;22.75;;;15.63;;
37943;SDS011;23767;42.024;23.086;2022-12-18T00:21:06;23.70;;;15.18;;
37943;SDS011;23767;42.024;23.086;2022-12-18T00:23:33;21.92;;;14.75;;
37943;SDS011;23767;42.024;23.086;2022-12-18T00:26:00;21.25;;;13.68;;
37943;SDS011;23767;42.024;23.086;2022-12-18T00:28:26;22.98;;;14.45;;
37943;SDS011;23767;42.024;23.086;2022-12-18T00:30:59;21.23;;;15.15;;
37943;SDS011;23767;42.024;23.086;2022-12-18T00:33:25;21.42;;;15.18;;
37943;SDS011;23767;42.024;23.086;2022-12-18T00:35:52;21.98;;;13.77;;
37943;SDS011;23767;42.024;23.086;2022-12-18T00:38:18;22.83;;;14.45;;
37943;SDS011;23767;42.024;23.086;2022-12-18T00:40:44;20.15;;;13.82;;
37943;SDS011;23767;42.024;23.086;2022-12-18T00:43:10;20.40;;;12.88;;
37943;SDS011;23767;42.024;23.086;2022-12-18T00:45:36;21.95;;;14.45;;
37943;SDS011;23767;42.024;23.086;2022-12-18T00:48:02;17.42;;;12.85;;
37943;SDS011;23767;42.024;23.086;2022-12-18T00:50:28;28.23;;;18.15;;
37943;SDS011;23767;42.024;23.086;2022-12-18T00:52:54;31.17;;;17.73;;
37943;SDS011;23767;42.024;23.086;2022-12-18T00:55:20;28.33;;;19.08;;
37943;SDS011;23767;42.024;23.086;2022-12-18T00:57:46;26.55;;;16.55;;
37943;SDS011;23767;42.024;23.086;2022-12-18T01:00:13;22.40;;;15.55;;
37943;SDS011;23767;42.024;23.086;2022-12-18T01:02:40;22.77;;;15.05;;
37943;SDS011;23767;42.024;23.086;2022-12-18T01:05:06;24.55;;;15.25;;
37943;SDS011;23767;42.024;23.086;2022-12-18T01:07:33;19.45;;;12.55;;
37943;SDS011;23767;42.024;23.086;2022-12-18T01:09:59;20.65;;;12.40;;
37943;SDS011;23767;42.024;23.086;2022-12-18T01:12:25;24.95;;;10.68;;
37943;SDS011;23767;42.024;23.086;2022-12-18T01:14:51;22.40;;;10.60;;
37943;SDS011;23767;42.024;23.086;2022-12-18T01:17:17;32.25;;;10.07;;
37943;SDS011;23767;42.024;23.086;2022-12-18T01:19:43;20.15;;;8.75;;
37943;SDS011;23767;42.024;23.086;2022-12-18T01:22:09;18.10;;;8.60;;
37943;SDS011;23767;42.024;23.086;2022-12-18T01:24:35;14.57;;;8.15;;
37943;SDS011;23767;42.024;23.086;2022-12-18T01:27:01;16.00;;;7.72;;
37943;SDS011;23767;42.024;23.086;2022-12-18T01:29:27;18.23;;;8.65;;
37943;SDS011;23767;42.024;23.086;2022-12-18T01:31:54;23.95;;;8.63;;
37943;SDS011;23767;42.024;23.086;2022-12-18T01:34:21;21.25;;;9.18;;
37943;SDS011;23767;42.024;23.086;2022-12-18T01:36:47;22.45;;;8.90;;
37943;SDS011;23767;42.024;23.086;2022-12-18T01:39:14;17.92;;;8.20;;
37943;SDS011;23767;42.024;23.086;2022-12-18T01:41:40;17.83;;;9.32;;
37943;SDS011;23767;42.024;23.086;2022-12-18T01:47:10;19.35;;;8.38;;
37943;SDS011;23767;42.024;23.086;2022-12-18T01:49:39;23.02;;;9.02;;
37943;SDS011;23767;42.024;23.086;2022-12-18T01:52:06;19.52;;;8.18;;
37943;SDS011;23767;42.024;23.086;2022-12-18T01:54:32;18.40;;;8.57;;
37943;SDS011;23767;42.024;23.086;2022-12-18T01:56:59;23.17;;;7.95;;
37943;SDS011;23767;42.024;23.086;2022-12-18T01:59:26;16.30;;;7.80;;
37943;SDS011;23767;42.024;23.086;2022-12-18T02:01:52;17.80;;;8.50;;
37943;SDS011;23767;42.024;23.086;2022-12-18T02:04:22;14.63;;;7.18;;
37943;SDS011;23767;42.024;23.086;2022-12-18T02:09:49;12.77;;;6.68;;
37943;SDS011;23767;42.024;23.086;2022-12-18T02:12:16;12.25;;;6.38;;
37943;SDS011;23767;42.024;23.086;2022-12-18T02:14:49;12.88;;;6.18;;
37943;SDS011;23767;42.024;23.086;2022-12-18T02:17:19;13.75;;;6.72;;
37943;SDS011;23767;42.024;23.086;2022-12-18T02:20:01;12.98;;;7.07;;
37943;SDS011;23767;42.024;23.086;2022-12-18T02:22:36;10.68;;;6.20;;
37943;SDS011;23767;42.024;23.086;2022-12-18T02:25:23;9.40;;;6.05;;
37943;SDS011;23767;42.024;23.086;2022-12-18T02:27:52;9.60;;;5.35;;
37943;SDS011;23767;42.024;23.086;2022-12-18T02:30:20;9.38;;;5.18;;
37943;SDS011;23767;42.024;23.086;2022-12-18T02:32:47;13.88;;;6.28;;
37943;SDS011;23767;42.024;23.086;2022-12-18T02:35:25;9.60;;;5.32;;
37943;SDS011;23767;42.024;23.086;2022-12-18T02:37:51;12.32;;;5.35;;
37943;SDS011;23767;42.024;23.086;2022-12-18T02:40:18;8.75;;;5.57;;
37943;SDS011;23767;42.024;23.086;2022-12-18T02:42:45;9.98;;;5.70;;
37943;SDS011;23767;42.024;23.086;2022-12-18T02:45:11;11.40;;;6.05;;
37943;SDS011;23767;42.024;23.086;2022-12-18T02:47:38;7.10;;;5.05;;
37943;SDS011;23767;42.024;23.086;2022-12-18T02:52:53;8.10;;;5.32;;
37943;SDS011;23767;42.024;23.086;2022-12-18T02:58:04;9.77;;;5.75;;
37943;SDS011;23767;42.024;23.086;2022-12-18T03:00:37;8.50;;;5.47;;
37943;SDS011;23767;42.024;23.086;2022-12-18T03:03:16;13.20;;;5.95;;
37943;SDS011;23767;42.024;23.086;2022-12-18T03:05:47;11.45;;;5.88;;
37943;SDS011;23767;42.024;23.086;2022-12-18T03:08:18;11.57;;;5.57;;
37943;SDS011;23767;42.024;23.086;2022-12-18T03:10:55;8.85;;;5.65;;
37943;SDS011;23767;42.024;23.086;2022-12-18T03:13:26;8.82;;;5.45;;
37943;SDS011;23767;42.024;23.086;2022-12-18T03:15:53;8.48;;;5.10;;
37943;SDS011;23767;42.024;23.086;2022-12-18T03:18:35;8.23;;;5.10;;
37943;SDS011;23767;42.024;23.086;2022-12-18T03:21:02;7.70;;;5.28;;
37943;SDS011;23767;42.024;23.086;2022-12-18T03:23:30;8.68;;;5.30;;
37943;SDS011;23767;42.024;23.086;2022-12-18T03:25:59;9.60;;;5.40;;
37943;SDS011;23767;42.024;23.086;2022-12-18T03:28:27;9.05;;;4.97;;
37943;SDS011;23767;42.024;23.086;2022-12-18T03:30:56;7.65;;;5.38;;
37943;SDS011;23767;42.024;23.086;2022-12-18T03:33:30;7.00;;;4.40;;
37943;SDS011;23767;42.024;23.086;2022-12-18T03:36:00;7.35;;;4.75;;
37943;SDS011;23767;42.024;23.086;2022-12-18T03:38:26;7.28;;;5.00;;
37943;SDS011;23767;42.024;23.086;2022-12-18T03:40:56;10.27;;;5.78;;
37943;SDS011;23767;42.024;23.086;2022-12-18T03:46:05;10.32;;;5.72;;
37943;SDS011;23767;42.024;23.086;2022-12-18T03:48:36;6.65;;;4.70;;
37943;SDS011;23767;42.024;23.086;2022-12-18T03:51:11;9.65;;;7.50;;
37943;SDS011;23767;42.024;23.086;2022-12-18T03:53:55;12.55;;;8.30;;
37943;SDS011;23767;42.024;23.086;2022-12-18T03:56:24;8.43;;;5.50;;
37943;SDS011;23767;42.024;23.086;2022-12-18T03:58:51;7.68;;;5.05;;
37943;SDS011;23767;42.024;23.086;2022-12-18T04:01:17;8.15;;;5.85;;
37943;SDS011;23767;42.024;23.086;2022-12-18T04:03:46;7.85;;;4.82;;
37943;SDS011;23767;42.024;23.086;2022-12-18T04:06:13;11.23;;;7.30;;
37943;SDS011;23767;42.024;23.086;2022-12-18T04:08:39;8.18;;;4.65;;
37943;SDS011;23767;42.024;23.086;2022-12-18T04:11:06;9.57;;;5.03;;
37943;SDS011;23767;42.024;23.086;2022-12-18T04:13:34;8.35;;;4.55;;
37943;SDS011;23767;42.024;23.086;2022-12-18T04:16:00;12.02;;;6.90;;
37943;SDS011;23767;42.024;23.086;2022-12-18T04:18:27;7.50;;;5.65;;
37943;SDS011;23767;42.024;23.086;2022-12-18T04:20:53;8.20;;;5.50;;
37943;SDS011;23767;42.024;23.086;2022-12-18T04:23:19;6.82;;;4.95;;
37943;SDS011;23767;42.024;23.086;2022-12-18T04:25:46;7.35;;;4.90;;
37943;SDS011;23767;42.024;23.086;2022-12-18T04:28:12;7.88;;;4.72;;
37943;SDS011;23767;42.024;23.086;2022-12-18T04:30:38;7.15;;;4.95;;
37943;SDS011;23767;42.024;23.086;2022-12-18T04:33:08;8.75;;;4.90;;
37943;SDS011;23767;42.024;23.086;2022-12-18T04:35:34;8.32;;;4.53;;
37943;SDS011;23767;42.024;23.086;2022-12-18T04:38:00;11.55;;;4.68;;
37943;SDS011;23767;42.024;23.086;2022-12-18T04:40:26;7.15;;;4.22;;
37943;SDS011;23767;42.024;23.086;2022-12-18T04:42:52;8.13;;;4.93;;
37943;SDS011;23767;42.024;23.086;2022-12-18T04:45:18;6.93;;;4.60;;
37943;SDS011;23767;42.024;23.086;2022-12-18T04:47:45;9.40;;;4.30;;
37943;SDS011;23767;42.024;23.086;2022-12-18T04:50:11;13.15;;;5.25;;
37943;SDS011;23767;42.024;23.086;2022-12-18T04:52:37;11.60;;;4.97;;
37943;SDS011;23767;42.024;23.086;2022-12-18T04:55:03;9.27;;;4.90;;
37943;SDS011;23767;42.024;23.086;2022-12-18T04:57:29;8.82;;;4.38;;
37943;SDS011;23767;42.024;23.086;2022-12-18T04:59:55;12.15;;;4.95;;
37943;SDS011;23767;42.024;23.086;2022-12-18T05:02:21;13.25;;;4.80;;
37943;SDS011;23767;42.024;23.086;2022-12-18T05:04:47;13.18;;;4.53;;
37943;SDS011;23767;42.024;23.086;2022-12-18T05:07:13;11.98;;;5.22;;
37943;SDS011;23767;42.024;23.086;2022-12-18T05:09:40;15.95;;;5.20;;
37943;SDS011;23767;42.024;23.086;2022-12-18T05:12:06;11.95;;;4.93;;
37943;SDS011;23767;42.024;23.086;2022-12-18T05:14:32;13.88;;;5.40;;
37943;SDS011;23767;42.024;23.086;2022-12-18T05:16:58;14.98;;;4.78;;
37943;SDS011;23767;42.024;23.086;2022-12-18T05:19:24;12.32;;;5.47;;
37943;SDS011;23767;42.024;23.086;2022-12-18T05:21:50;17.65;;;6.03;;
37943;SDS011;23767;42.024;23.086;2022-12-18T05:24:16;13.98;;;4.80;;
37943;SDS011;23767;42.024;23.086;2022-12-18T05:26:42;17.02;;;5.30;;
37943;SDS011;23767;42.024;23.086;2022-12-18T05:29:08;15.05;;;4.30;;
37943;SDS011;23767;42.024;23.086;2022-12-18T05:31:37;15.30;;;4.82;;
37943;SDS011;23767;42.024;23.086;2022-12-18T05:34:03;12.50;;;5.38;;
37943;SDS011;23767;42.024;23.086;2022-12-18T05:36:29;17.88;;;5.13;;
37943;SDS011;23767;42.024;23.086;2022-12-18T05:38:55;13.65;;;4.43;;
37943;SDS011;23767;42.024;23.086;2022-12-18T05:41:21;15.27;;;5.03;;
37943;SDS011;23767;42.024;23.086;2022-12-18T05:43:47;13.13;;;4.25;;
37943;SDS011;23767;42.024;23.086;2022-12-18T05:46:14;12.35;;;5.00;;
37943;SDS011;23767;42.024;23.086;2022-12-18T05:48:41;12.50;;;4.63;;
37943;SDS011;23767;42.024;23.086;2022-12-18T05:51:08;15.38;;;4.60;;
37943;SDS011;23767;42.024;23.086;2022-12-18T05:53:35;14.05;;;4.75;;
37943;SDS011;23767;42.024;23.086;2022-12-18T05:56:02;9.25;;;4.38;;
37943;SDS011;23767;42.024;23.086;2022-12-18T05:58:29;11.77;;;4.60;;
37943;SDS011;23767;42.024;23.086;2022-12-18T06:00:55;10.88;;;4.43;;
37943;SDS011;23767;42.024;23.086;2022-12-18T06:03:21;6.57;;;3.63;;
37943;SDS011;23767;42.024;23.086;2022-12-18T06:05:47;9.00;;;4.00;;
37943;SDS011;23767;42.024;23.086;2022-12-18T06:08:13;7.07;;;3.72;;
37943;SDS011;23767;42.024;23.086;2022-12-18T06:10:40;8.43;;;3.78;;
37943;SDS011;23767;42.024;23.086;2022-12-18T06:13:06;8.82;;;4.03;;
37943;SDS011;23767;42.024;23.086;2022-12-18T06:15:32;7.88;;;4.10;;
37943;SDS011;23767;42.024;23.086;2022-12-18T06:18:00;8.98;;;3.95;;
37943;SDS011;23767;42.024;23.086;2022-12-18T06:20:26;8.02;;;4.20;;
37943;SDS011;23767;42.024;23.086;2022-12-18T06:22:52;8.80;;;3.70;;
37943;SDS011;23767;42.024;23.086;2022-12-18T06:25:18;6.88;;;3.92;;
37943;SDS011;23767;42.024;23.086;2022-12-18T06:27:45;8.07;;;3.80;;
37943;SDS011;23767;42.024;23.086;2022-12-18T06:30:12;6.95;;;3.67;;
37943;SDS011;23767;42.024;23.086;2022-12-18T06:32:39;6.47;;;3.45;;
37943;SDS011;23767;42.024;23.086;2022-12-18T06:35:05;7.10;;;3.65;;
37943;SDS011;23767;42.024;23.086;2022-12-18T06:37:31;7.35;;;3.95;;
37943;SDS011;23767;42.024;23.086;2022-12-18T06:39:57;6.60;;;3.55;;
37943;SDS011;23767;42.024;23.086;2022-12-18T06:42:24;6.38;;;4.05;;
37943;SDS011;23767;42.024;23.086;2022-12-18T06:44:50;5.95;;;3.75;;
37943;SDS011;23767;42.024;23.086;2022-12-18T06:47:16;9.57;;;4.70;;
37943;SDS011;23767;42.024;23.086;2022-12-18T06:49:42;26.65;;;16.42;;
37943;SDS011;23767;42.024;23.086;2022-12-18T06:52:08;30.83;;;15.93;;
37943;SDS011;23767;42.024;23.086;2022-12-18T06:54:34;39.38;;;18.10;;
37943;SDS011;23767;42.024;23.086;2022-12-18T06:57:01;35.35;;;16.17;;
37943;SDS011;23767;42.024;23.086;2022-12-18T06:59:27;18.95;;;8.90;;
37943;SDS011;23767;42.024;23.086;2022-12-18T07:01:53;40.00;;;15.63;;
37943;SDS011;23767;42.024;23.086;2022-12-18T07:04:19;55.53;;;21.90;;
37943;SDS011;23767;42.024;23.086;2022-12-18T07:06:45;26.17;;;11.40;;
37943;SDS011;23767;42.024;23.086;2022-12-18T07:09:11;63.22;;;26.42;;
37943;SDS011;23767;42.024;23.086;2022-12-18T07:11:37;7.28;;;4.40;;
37943;SDS011;23767;42.024;23.086;2022-12-18T07:14:03;7.28;;;4.18;;
37943;SDS011;23767;42.024;23.086;2022-12-18T07:16:29;7.47;;;4.53;;
37943;SDS011;23767;42.024;23.086;2022-12-18T07:18:55;8.23;;;4.15;;
37943;SDS011;23767;42.024;23.086;2022-12-18T07:21:22;13.65;;;3.53;;
37943;SDS011;23767;42.024;23.086;2022-12-18T07:23:48;9.18;;;4.30;;
37943;SDS011;23767;42.024;23.086;2022-12-18T07:26:15;9.38;;;4.07;;
37943;SDS011;23767;42.024;23.086;2022-12-18T07:28:41;9.10;;;4.07;;
37943;SDS011;23767;42.024;23.086;2022-12-18T07:31:10;8.48;;;4.55;;
37943;SDS011;23767;42.024;23.086;2022-12-18T07:33:36;10.63;;;5.35;;
37943;SDS011;23767;42.024;23.086;2022-12-18T07:36:03;10.00;;;4.40;;
37943;SDS011;23767;42.024;23.086;2022-12-18T07:38:30;7.68;;;4.18;;
37943;SDS011;23767;42.024;23.086;2022-12-18T07:41:04;9.35;;;4.57;;
37943;SDS011;23767;42.024;23.086;2022-12-18T07:43:30;11.80;;;4.95;;
37943;SDS011;23767;42.024;23.086;2022-12-18T07:45:56;13.68;;;5.28;;
37943;SDS011;23767;42.024;23.086;2022-12-18T07:48:22;9.75;;;5.03;;
37943;SDS011;23767;42.024;23.086;2022-12-18T07:50:48;12.48;;;5.25;;
37943;SDS011;23767;42.024;23.086;2022-12-18T07:53:14;7.90;;;4.80;;
37943;SDS011;23767;42.024;23.086;2022-12-18T07:55:41;13.05;;;5.10;;
37943;SDS011;23767;42.024;23.086;2022-12-18T07:58:07;10.05;;;5.68;;
37943;SDS011;23767;42.024;23.086;2022-12-18T08:00:34;9.82;;;5.15;;
37943;SDS011;23767;42.024;23.086;2022-12-18T08:03:00;12.23;;;5.18;;
37943;SDS011;23767;42.024;23.086;2022-12-18T08:05:26;9.07;;;4.82;;
37943;SDS011;23767;42.024;23.086;2022-12-18T08:07:52;10.68;;;5.60;;
37943;SDS011;23767;42.024;23.086;2022-12-18T08:10:19;13.48;;;6.15;;
37943;SDS011;23767;42.024;23.086;2022-12-18T08:12:45;9.38;;;5.30;;
37943;SDS011;23767;42.024;23.086;2022-12-18T08:15:11;11.93;;;5.78;;
37943;SDS011;23767;42.024;23.086;2022-12-18T08:17:37;8.70;;;4.63;;
37943;SDS011;23767;42.024;23.086;2022-12-18T08:20:03;8.13;;;5.47;;
37943;SDS011;23767;42.024;23.086;2022-12-18T08:22:30;8.40;;;5.57;;
37943;SDS011;23767;42.024;23.086;2022-12-18T08:24:56;9.40;;;5.53;;
37943;SDS011;23767;42.024;23.086;2022-12-18T08:27:22;8.95;;;5.13;;
37943;SDS011;23767;42.024;23.086;2022-12-18T08:29:48;8.63;;;5.80;;
37943;SDS011;23767;42.024;23.086;2022-12-18T08:32:14;12.32;;;5.85;;
37943;SDS011;23767;42.024;23.086;2022-12-18T08:34:40;9.75;;;5.63;;
37943;SDS011;23767;42.024;23.086;2022-12-18T08:37:06;12.13;;;6.28;;
37943;SDS011;23767;42.024;23.086;2022-12-18T08:39:32;8.63;;;5.65;;
37943;SDS011;23767;42.024;23.086;2022-12-18T08:41:59;10.23;;;6.00;;
37943;SDS011;23767;42.024;23.086;2022-12-18T08:44:44;9.85;;;6.10;;
37943;SDS011;23767;42.024;23.086;2022-12-18T08:47:10;10.43;;;5.60;;
37943;SDS011;23767;42.024;23.086;2022-12-18T08:49:36;13.82;;;6.80;;
37943;SDS011;23767;42.024;23.086;2022-12-18T08:52:02;10.52;;;5.88;;
37943;SDS011;23767;42.024;23.086;2022-12-18T08:54:28;8.68;;;6.10;;
37943;SDS011;23767;42.024;23.086;2022-12-18T08:56:54;9.02;;;6.13;;
37943;SDS011;23767;42.024;23.086;2022-12-18T08:59:21;11.07;;;7.35;;
37943;SDS011;23767;42.024;23.086;2022-12-18T09:01:48;10.52;;;6.75;;
37943;SDS011;23767;42.024;23.086;2022-12-18T09:04:14;9.88;;;6.38;;
37943;SDS011;23767;42.024;23.086;2022-12-18T09:06:40;10.13;;;6.30;;
37943;SDS011;23767;42.024;23.086;2022-12-18T09:09:06;9.70;;;6.38;;
37943;SDS011;23767;42.024;23.086;2022-12-18T09:11:32;10.63;;;7.68;;
37943;SDS011;23767;42.024;23.086;2022-12-18T09:13:59;9.75;;;6.90;;
37943;SDS011;23767;42.024;23.086;2022-12-18T09:16:26;11.32;;;8.10;;
37943;SDS011;23767;42.024;23.086;2022-12-18T09:18:56;11.38;;;7.22;;
37943;SDS011;23767;42.024;23.086;2022-12-18T09:23:52;11.88;;;8.05;;
37943;SDS011;23767;42.024;23.086;2022-12-18T09:26:19;9.45;;;6.72;;
37943;SDS011;23767;42.024;23.086;2022-12-18T09:28:45;11.45;;;6.68;;
37943;SDS011;23767;42.024;23.086;2022-12-18T09:31:11;9.50;;;6.22;;
37943;SDS011;23767;42.024;23.086;2022-12-18T09:33:37;10.55;;;6.13;;
37943;SDS011;23767;42.024;23.086;2022-12-18T09:36:05;10.20;;;6.78;;
37943;SDS011;23767;42.024;23.086;2022-12-18T09:38:31;9.05;;;6.20;;
37943;SDS011;23767;42.024;23.086;2022-12-18T09:40:59;8.63;;;6.07;;
37943;SDS011;23767;42.024;23.086;2022-12-18T09:45:53;8.90;;;6.78;;
37943;SDS011;23767;42.024;23.086;2022-12-18T09:48:40;10.38;;;6.78;;
37943;SDS011;23767;42.024;23.086;2022-12-18T09:51:17;9.35;;;6.70;;
37943;SDS011;23767;42.024;23.086;2022-12-18T09:53:47;12.73;;;6.60;;
37943;SDS011;23767;42.024;23.086;2022-12-18T09:56:15;9.52;;;6.50;;
37943;SDS011;23767;42.024;23.086;2022-12-18T09:58:46;10.07;;;6.80;;
37943;SDS011;23767;42.024;23.086;2022-12-18T10:01:15;16.02;;;10.02;;
37943;SDS011;23767;42.024;23.086;2022-12-18T10:03:42;15.65;;;9.15;;
37943;SDS011;23767;42.024;23.086;2022-12-18T10:06:13;12.25;;;8.57;;
37943;SDS011;23767;42.024;23.086;2022-12-18T10:08:49;9.48;;;6.85;;
37943;SDS011;23767;42.024;23.086;2022-12-18T10:13:46;11.48;;;7.05;;
37943;SDS011;23767;42.024;23.086;2022-12-18T10:18:49;10.05;;;7.32;;
37943;SDS011;23767;42.024;23.086;2022-12-18T10:21:21;9.65;;;7.00;;
37943;SDS011;23767;42.024;23.086;2022-12-18T10:24:14;11.52;;;7.78;;
37943;SDS011;23767;42.024;23.086;2022-12-18T10:26:36;13.57;;;7.78;;
37943;SDS011;23767;42.024;23.086;2022-12-18T10:29:04;11.82;;;8.43;;
37943;SDS011;23767;42.024;23.086;2022-12-18T10:31:33;10.38;;;7.00;;
37943;SDS011;23767;42.024;23.086;2022-12-18T10:33:59;14.68;;;9.80;;
37943;SDS011;23767;42.024;23.086;2022-12-18T10:36:25;18.23;;;10.30;;
37943;SDS011;23767;42.024;23.086;2022-12-18T10:38:51;13.73;;;8.50;;
37943;SDS011;23767;42.024;23.086;2022-12-18T10:43:50;59.83;;;31.58;;
37943;SDS011;23767;42.024;23.086;2022-12-18T10:46:34;17.45;;;10.65;;
37943;SDS011;23767;42.024;23.086;2022-12-18T10:49:00;37.33;;;20.70;;
37943;SDS011;23767;42.024;23.086;2022-12-18T10:53:54;45.55;;;27.55;;
37943;SDS011;23767;42.024;23.086;2022-12-18T10:56:20;29.58;;;18.45;;
37943;SDS011;23767;42.024;23.086;2022-12-18T10:58:55;15.10;;;10.02;;
37943;SDS011;23767;42.024;23.086;2022-12-18T11:01:21;15.73;;;10.45;;
37943;SDS011;23767;42.024;23.086;2022-12-18T11:06:17;10.38;;;7.38;;
37943;SDS011;23767;42.024;23.086;2022-12-18T11:08:57;11.50;;;8.27;;
37943;SDS011;23767;42.024;23.086;2022-12-18T11:11:23;11.50;;;8.30;;
37943;SDS011;23767;42.024;23.086;2022-12-18T11:14:02;12.40;;;8.45;;
37943;SDS011;23767;42.024;23.086;2022-12-18T11:16:29;14.18;;;8.27;;
37943;SDS011;23767;42.024;23.086;2022-12-18T11:19:08;12.30;;;7.22;;
37943;SDS011;23767;42.024;23.086;2022-12-18T11:21:39;11.73;;;8.18;;
37943;SDS011;23767;42.024;23.086;2022-12-18T11:24:07;17.65;;;8.75;;
37943;SDS011;23767;42.024;23.086;2022-12-18T11:26:43;11.63;;;7.97;;
37943;SDS011;23767;42.024;23.086;2022-12-18T11:29:10;11.68;;;7.82;;
37943;SDS011;23767;42.024;23.086;2022-12-18T11:34:16;13.50;;;9.20;;
37943;SDS011;23767;42.024;23.086;2022-12-18T11:36:48;10.65;;;7.32;;
37943;SDS011;23767;42.024;23.086;2022-12-18T11:42:01;15.23;;;10.05;;
37943;SDS011;23767;42.024;23.086;2022-12-18T11:44:49;24.15;;;16.90;;
37943;SDS011;23767;42.024;23.086;2022-12-18T11:50:01;20.42;;;13.10;;
37943;SDS011;23767;42.024;23.086;2022-12-18T11:52:31;24.90;;;17.42;;
37943;SDS011;23767;42.024;23.086;2022-12-18T11:55:00;14.18;;;9.80;;
37943;SDS011;23767;42.024;23.086;2022-12-18T11:59:59;19.95;;;13.23;;
37943;SDS011;23767;42.024;23.086;2022-12-18T12:07:43;14.45;;;10.63;;
37943;SDS011;23767;42.024;23.086;2022-12-18T12:23:03;13.02;;;9.73;;
37943;SDS011;23767;42.024;23.086;2022-12-18T12:28:15;13.43;;;9.73;;
37943;SDS011;23767;42.024;23.086;2022-12-18T12:31:07;14.05;;;9.32;;
37943;SDS011;23767;42.024;23.086;2022-12-18T12:33:49;13.85;;;8.35;;
37943;SDS011;23767;42.024;23.086;2022-12-18T12:39:16;13.63;;;8.75;;
37943;SDS011;23767;42.024;23.086;2022-12-18T12:41:44;12.07;;;8.57;;
37943;SDS011;23767;42.024;23.086;2022-12-18T12:44:33;14.63;;;8.70;;
37943;SDS011;23767;42.024;23.086;2022-12-18T12:47:01;12.57;;;8.70;;
37943;SDS011;23767;42.024;23.086;2022-12-18T12:49:30;13.52;;;9.30;;
37943;SDS011;23767;42.024;23.086;2022-12-18T12:55:02;12.98;;;8.90;;
37943;SDS011;23767;42.024;23.086;2022-12-18T13:00:19;14.38;;;8.88;;
37943;SDS011;23767;42.024;23.086;2022-12-18T13:05:29;18.00;;;10.70;;
37943;SDS011;23767;42.024;23.086;2022-12-18T13:08:04;15.50;;;10.43;;
37943;SDS011;23767;42.024;23.086;2022-12-18T13:10:33;16.75;;;11.07;;
37943;SDS011;23767;42.024;23.086;2022-12-18T13:13:04;17.02;;;10.88;;
37943;SDS011;23767;42.024;23.086;2022-12-18T13:18:03;17.95;;;10.48;;
37943;SDS011;23767;42.024;23.086;2022-12-18T13:20:33;15.85;;;9.57;;
37943;SDS011;23767;42.024;23.086;2022-12-18T13:22:59;17.92;;;10.85;;
37943;SDS011;23767;42.024;23.086;2022-12-18T13:25:32;19.17;;;11.32;;
37943;SDS011;23767;42.024;23.086;2022-12-18T13:33:43;15.73;;;10.48;;
37943;SDS011;23767;42.024;23.086;2022-12-18T13:38:23;14.82;;;10.38;;
37943;SDS011;23767;42.024;23.086;2022-12-18T13:43:39;15.32;;;10.65;;
37943;SDS011;23767;42.024;23.086;2022-12-18T13:49:05;15.07;;;10.52;;
37943;SDS011;23767;42.024;23.086;2022-12-18T13:51:35;13.50;;;9.85;;
37943;SDS011;23767;42.024;23.086;2022-12-18T13:54:02;21.38;;;14.93;;
37943;SDS011;23767;42.024;23.086;2022-12-18T13:56:32;16.40;;;10.23;;
37943;SDS011;23767;42.024;23.086;2022-12-18T14:01:34;14.38;;;10.10;;
37943;SDS011;23767;42.024;23.086;2022-12-18T14:04:12;14.93;;;9.90;;
37943;SDS011;23767;42.024;23.086;2022-12-18T14:06:43;13.27;;;9.65;;
37943;SDS011;23767;42.024;23.086;2022-12-18T14:09:12;13.85;;;9.88;;
37943;SDS011;23767;42.024;23.086;2022-12-18T14:11:39;13.07;;;8.50;;
37943;SDS011;23767;42.024;23.086;2022-12-18T14:14:05;15.27;;;9.45;;
37943;SDS011;23767;42.024;23.086;2022-12-18T14:16:32;14.93;;;9.10;;
37943;SDS011;23767;42.024;23.086;2022-12-18T14:18:59;17.90;;;9.02;;
37943;SDS011;23767;42.024;23.086;2022-12-18T14:21:26;16.75;;;9.43;;
37943;SDS011;23767;42.024;23.086;2022-12-18T14:26:34;17.05;;;9.25;;
37943;SDS011;23767;42.024;23.086;2022-12-18T14:29:11;17.30;;;11.40;;
37943;SDS011;23767;42.024;23.086;2022-12-18T14:31:43;14.15;;;9.52;;
37943;SDS011;23767;42.024;23.086;2022-12-18T14:34:15;15.95;;;9.68;;
37943;SDS011;23767;42.024;23.086;2022-12-18T14:36:44;17.70;;;10.45;;
37943;SDS011;23767;42.024;23.086;2022-12-18T14:39:17;16.55;;;9.63;;
37943;SDS011;23767;42.024;23.086;2022-12-18T14:41:43;15.38;;;9.27;;
37943;SDS011;23767;42.024;23.086;2022-12-18T14:44:10;15.60;;;9.43;;
37943;SDS011;23767;42.024;23.086;2022-12-18T14:46:38;14.57;;;9.55;;
37943;SDS011;23767;42.024;23.086;2022-12-18T14:49:17;17.40;;;9.75;;
37943;SDS011;23767;42.024;23.086;2022-12-18T14:51:51;16.58;;;9.45;;
37943;SDS011;23767;42.024;23.086;2022-12-18T14:54:18;17.70;;;10.15;;
37943;SDS011;23767;42.024;23.086;2022-12-18T14:56:48;14.43;;;9.40;;
37943;SDS011;23767;42.024;23.086;2022-12-18T14:59:16;13.65;;;9.65;;
37943;SDS011;23767;42.024;23.086;2022-12-18T15:01:45;14.07;;;9.18;;
37943;SDS011;23767;42.024;23.086;2022-12-18T15:09:29;27.05;;;18.65;;
37943;SDS011;23767;42.024;23.086;2022-12-18T15:11:56;29.92;;;19.88;;
37943;SDS011;23767;42.024;23.086;2022-12-18T15:16:54;21.15;;;15.63;;
37943;SDS011;23767;42.024;23.086;2022-12-18T15:19:26;55.20;;;44.72;;
37943;SDS011;23767;42.024;23.086;2022-12-18T15:21:57;20.70;;;16.10;;
37943;SDS011;23767;42.024;23.086;2022-12-18T15:24:29;15.63;;;10.82;;
37943;SDS011;23767;42.024;23.086;2022-12-18T15:26:56;15.27;;;10.27;;
37943;SDS011;23767;42.024;23.086;2022-12-18T15:29:22;12.43;;;8.77;;
37943;SDS011;23767;42.024;23.086;2022-12-18T15:32:00;13.43;;;9.88;;
37943;SDS011;23767;42.024;23.086;2022-12-18T15:34:26;14.50;;;10.15;;
37943;SDS011;23767;42.024;23.086;2022-12-18T15:36:52;13.35;;;9.35;;
37943;SDS011;23767;42.024;23.086;2022-12-18T15:39:18;16.40;;;10.13;;
37943;SDS011;23767;42.024;23.086;2022-12-18T15:41:44;15.02;;;9.98;;
37943;SDS011;23767;42.024;23.086;2022-12-18T15:44:31;15.25;;;10.45;;
37943;SDS011;23767;42.024;23.086;2022-12-18T15:46:57;14.50;;;10.02;;
37943;SDS011;23767;42.024;23.086;2022-12-18T15:49:23;15.10;;;10.38;;
37943;SDS011;23767;42.024;23.086;2022-12-18T15:51:51;16.75;;;12.15;;
37943;SDS011;23767;42.024;23.086;2022-12-18T15:54:18;16.13;;;10.80;;
37943;SDS011;23767;42.024;23.086;2022-12-18T15:57:04;31.35;;;21.58;;
37943;SDS011;23767;42.024;23.086;2022-12-18T15:59:49;23.83;;;16.77;;
37943;SDS011;23767;42.024;23.086;2022-12-18T16:02:16;17.27;;;11.48;;
37943;SDS011;23767;42.024;23.086;2022-12-18T16:04:43;21.40;;;14.98;;
37943;SDS011;23767;42.024;23.086;2022-12-18T16:07:10;25.08;;;16.75;;
37943;SDS011;23767;42.024;23.086;2022-12-18T16:09:37;20.02;;;13.63;;
37943;SDS011;23767;42.024;23.086;2022-12-18T16:12:03;20.23;;;12.85;;